Terminal Aerodrome Forecast
Issued by NWS

Home | Current Version | Previous Version | Graphics & Text | Print | Product List | Glossary On
Versions: 1 2 3 4 5 6 7 8 9 10 11 12 13 14 15 16 17 18 19 20
375
FTUS43 KIWX 211121
TAFSBN
TAF
KSBN 211121Z 2112/2212 10009KT P6SM SCT008 OVC045
      TEMPO 2112/2116 2SM +TSRA BKN008 OVC020CB
     FM211600 11012G21KT P6SM VCTS OVC015CB
     FM220000 13008KT P6SM VCTS OVC020CB
     FM220300 17007KT P6SM VCSH BKN015
     FM220600 22005KT P6SM BKN010=

USA.gov is the U.S. government's official web portal to all federal, state and local government web resources and services.